createdAt,value
2024-03-09T00:02:27.015Z,16.70
2024-03-09T00:05:29.548Z,16.70
2024-03-09T00:08:31.240Z,16.67
2024-03-09T00:11:33.441Z,16.67
2024-03-09T00:14:36.702Z,16.65
2024-03-09T00:17:43.492Z,16.64
2024-03-09T00:20:45.297Z,16.62
2024-03-09T00:23:51.698Z,16.61
2024-03-09T00:26:53.295Z,16.60
2024-03-09T00:29:57.808Z,16.59
2024-03-09T00:33:01.169Z,16.61
2024-03-09T00:36:02.902Z,16.61
2024-03-09T00:39:05.006Z,16.61
2024-03-09T00:42:09.457Z,16.63
2024-03-09T00:45:12.398Z,16.65
2024-03-09T00:48:14.469Z,16.66
2024-03-09T00:51:16.134Z,16.66
2024-03-09T00:54:19.196Z,16.67
2024-03-09T00:57:21.964Z,16.68
2024-03-09T01:00:25.301Z,16.68
2024-03-09T01:03:30.807Z,16.68
2024-03-09T01:06:32.429Z,16.68
2024-03-09T01:09:34.169Z,16.66
2024-03-09T01:12:37.315Z,16.64
2024-03-09T01:15:38.920Z,16.62
2024-03-09T01:18:40.585Z,16.62
2024-03-09T01:21:43.009Z,16.63
2024-03-09T01:24:45.742Z,16.63
2024-03-09T01:27:47.812Z,16.63
2024-03-09T01:30:49.471Z,16.61
2024-03-09T01:33:51.127Z,16.60
2024-03-09T01:36:52.726Z,16.59
2024-03-09T01:39:54.884Z,16.59
2024-03-09T01:42:57.485Z,16.57
2024-03-09T01:45:59.159Z,16.56
2024-03-09T01:49:00.812Z,16.55
2024-03-09T01:52:02.994Z,16.52
2024-03-09T01:55:09.188Z,16.49
2024-03-09T01:58:12.213Z,16.47
2024-03-09T02:01:23.540Z,16.47
2024-03-09T02:04:29.835Z,16.47
2024-03-09T02:07:34.381Z,16.45
2024-03-09T02:10:36.090Z,16.45
2024-03-09T02:13:37.788Z,16.46
2024-03-09T02:16:39.550Z,16.45
2024-03-09T02:19:42.243Z,16.48
2024-03-09T02:22:48.373Z,16.49
2024-03-09T02:25:52.426Z,16.50
2024-03-09T02:28:55.293Z,16.51
2024-03-09T02:31:57.191Z,16.52
2024-03-09T02:34:58.828Z,16.50
2024-03-09T02:38:00.561Z,16.50
2024-03-09T02:41:02.231Z,16.50
2024-03-09T02:44:04.044Z,16.48
2024-03-09T02:47:06.316Z,16.49
2024-03-09T02:50:08.525Z,16.48
2024-03-09T02:53:10.245Z,16.47
2024-03-09T02:56:19.363Z,16.48
2024-03-09T02:59:21.006Z,16.44
2024-03-09T03:02:41.205Z,16.45
2024-03-09T03:05:44.135Z,16.43
2024-03-09T03:08:47.185Z,16.42
2024-03-09T03:11:48.933Z,16.41
2024-03-09T03:14:51.388Z,16.41
2024-03-09T03:17:52.972Z,16.38
2024-03-09T03:20:54.664Z,16.37
2024-03-09T03:23:56.337Z,16.36
2024-03-09T03:26:58.661Z,16.34
2024-03-09T03:30:00.295Z,16.35
2024-03-09T03:33:02.089Z,16.35
2024-03-09T03:36:03.842Z,16.36
2024-03-09T03:39:05.988Z,16.37
2024-03-09T03:42:07.732Z,16.39
2024-03-09T03:45:12.793Z,16.41
2024-03-09T03:48:17.136Z,16.42
2024-03-09T03:51:19.225Z,16.43
2024-03-09T03:57:24.918Z,16.42
2024-03-09T04:00:27.136Z,16.41
2024-03-09T04:03:32.751Z,16.42
2024-03-09T04:06:34.991Z,16.41
2024-03-09T04:09:37.063Z,16.40
2024-03-09T04:12:42.337Z,16.39
2024-03-09T04:15:45.706Z,16.40
2024-03-09T04:18:47.297Z,16.37
2024-03-09T04:21:48.941Z,16.37
2024-03-09T04:24:50.559Z,16.35
2024-03-09T04:27:53.673Z,16.34
2024-03-09T04:30:55.750Z,16.33
2024-03-09T04:33:57.329Z,16.30
2024-03-09T04:37:00.579Z,16.30
2024-03-09T04:40:10.611Z,16.29
2024-03-09T04:43:15.364Z,16.28
2024-03-09T04:46:17.205Z,16.28
2024-03-09T04:49:18.936Z,16.27
2024-03-09T04:52:20.547Z,16.27
2024-03-09T04:55:23.890Z,16.28
2024-03-09T04:58:25.475Z,16.28
2024-03-09T05:01:28.428Z,16.30
2024-03-09T05:04:30.033Z,16.33
2024-03-09T05:07:31.648Z,16.33
2024-03-09T05:10:33.602Z,16.35
2024-03-09T05:13:36.133Z,16.33
2024-03-09T05:16:37.963Z,16.33
2024-03-09T05:19:39.517Z,16.32
2024-03-09T05:22:45.454Z,16.32
2024-03-09T05:25:48.165Z,16.31
2024-03-09T05:28:50.025Z,16.29
2024-03-09T05:31:51.634Z,16.28
2024-03-09T05:34:53.271Z,16.28
2024-03-09T05:37:56.141Z,16.28
2024-03-09T05:40:57.798Z,16.25
2024-03-09T05:43:59.451Z,16.26
2024-03-09T05:47:02.434Z,16.23
2024-03-09T05:50:04.534Z,16.22
2024-03-09T05:53:06.834Z,16.20
2024-03-09T05:56:09.953Z,16.20
2024-03-09T05:59:12.818Z,16.20
2024-03-09T06:02:14.741Z,16.18
2024-03-09T06:05:16.713Z,16.21
2024-03-09T06:08:19.074Z,16.22
2024-03-09T06:11:20.837Z,16.24
2024-03-09T06:14:25.066Z,16.26
2024-03-09T06:17:26.799Z,16.25
2024-03-09T06:20:29.862Z,16.27
2024-03-09T06:23:32.101Z,16.26
2024-03-09T06:26:35.271Z,16.26
2024-03-09T06:29:38.651Z,16.26
2024-03-09T06:32:40.321Z,16.27
2024-03-09T06:35:45.630Z,16.26
2024-03-09T06:38:49.667Z,16.26
2024-03-09T06:41:53.534Z,16.25
2024-03-09T06:44:55.358Z,16.22
2024-03-09T06:47:59.142Z,16.22
2024-03-09T06:51:01.002Z,16.22
2024-03-09T06:54:02.600Z,16.20
2024-03-09T06:57:04.257Z,16.20
2024-03-09T07:00:13.864Z,16.19
2024-03-09T07:03:15.637Z,16.17
2024-03-09T07:06:17.329Z,16.16
2024-03-09T07:09:20.667Z,16.16
2024-03-09T07:12:22.586Z,16.16
2024-03-09T07:15:26.431Z,16.16
2024-03-09T07:18:32.129Z,16.17
2024-03-09T07:21:34.345Z,16.18
2024-03-09T07:24:37.285Z,16.20
2024-03-09T07:27:42.156Z,16.21
2024-03-09T07:30:43.917Z,16.23
2024-03-09T07:33:45.489Z,16.22
2024-03-09T07:36:47.100Z,16.24
2024-03-09T07:39:48.700Z,16.23
2024-03-09T07:42:51.275Z,16.25
2024-03-09T07:45:52.845Z,16.25
2024-03-09T07:48:54.813Z,16.27
2024-03-09T07:51:57.353Z,16.33
2024-03-09T07:54:59.019Z,16.36
2024-03-09T07:58:13.150Z,16.40
2024-03-09T08:01:20.155Z,16.45
2024-03-09T08:04:22.172Z,16.49
2024-03-09T08:07:23.722Z,16.51
2024-03-09T08:10:26.982Z,16.57
2024-03-09T08:13:29.676Z,16.59
2024-03-09T08:16:34.163Z,16.62
2024-03-09T08:19:37.674Z,16.66
2024-03-09T08:22:41.257Z,16.69
2024-03-09T08:25:43.428Z,16.73
2024-03-09T08:28:45.269Z,16.77
2024-03-09T08:31:47.700Z,16.80
2024-03-09T08:34:49.446Z,16.83
2024-03-09T08:37:53.691Z,16.86
2024-03-09T08:40:55.385Z,16.90
2024-03-09T08:43:57.013Z,16.91
2024-03-09T08:46:58.918Z,16.95
2024-03-09T08:50:00.636Z,16.98
2024-03-09T08:53:02.309Z,17.01
2024-03-09T08:56:04.851Z,17.01
2024-03-09T08:59:06.498Z,17.03
2024-03-09T09:02:08.578Z,17.04
2024-03-09T09:05:13.437Z,17.06
2024-03-09T09:08:18.219Z,17.07
2024-03-09T09:11:20.168Z,17.08
2024-03-09T09:14:21.788Z,17.09
2024-03-09T09:17:23.803Z,17.11
2024-03-09T09:20:26.009Z,17.12
2024-03-09T09:23:27.797Z,17.11
2024-03-09T09:26:30.022Z,17.11
2024-03-09T09:29:31.765Z,17.11
2024-03-09T09:32:33.567Z,17.12
2024-03-09T09:35:37.008Z,17.10
2024-03-09T09:38:38.752Z,17.09
2024-03-09T09:41:40.668Z,17.08
2024-03-09T09:44:43.731Z,17.08
2024-03-09T09:47:48.655Z,17.08
2024-03-09T09:50:51.083Z,17.06
2024-03-09T09:53:55.532Z,17.08
2024-03-09T09:56:58.189Z,17.14
2024-03-09T09:59:59.973Z,17.16
2024-03-09T10:03:02.608Z,17.18
2024-03-09T10:06:18.908Z,17.13
2024-03-09T10:09:29.524Z,17.00
2024-03-09T10:12:31.169Z,16.81
2024-03-09T10:15:37.767Z,16.62
2024-03-09T10:18:48.684Z,16.37
2024-03-09T10:21:52.834Z,16.06
2024-03-09T10:24:57.187Z,15.88
2024-03-09T10:28:01.768Z,15.74
2024-03-09T10:31:04.397Z,15.67
2024-03-09T10:34:09.537Z,15.71
2024-03-09T10:37:18.715Z,15.75
2024-03-09T10:40:21.839Z,15.80
2024-03-09T10:43:24.342Z,15.87
2024-03-09T10:46:29.018Z,15.95
2024-03-09T10:49:31.943Z,16.03
2024-03-09T10:52:34.534Z,16.17
2024-03-09T10:55:55.069Z,16.33
2024-03-09T10:58:58.496Z,16.42
2024-03-09T11:02:03.432Z,16.49
2024-03-09T11:05:06.695Z,16.58
2024-03-09T11:08:11.095Z,16.63
2024-03-09T11:11:14.817Z,16.68
2024-03-09T11:14:17.343Z,16.74
2024-03-09T11:17:24.928Z,16.77
2024-03-09T11:20:28.098Z,16.83
2024-03-09T11:23:37.166Z,16.87
2024-03-09T11:26:43.053Z,16.87
2024-03-09T11:29:45.012Z,16.88
2024-03-09T11:32:47.777Z,16.92
2024-03-09T11:35:50.436Z,16.93
2024-03-09T11:38:56.858Z,16.94
2024-03-09T11:42:11.303Z,16.96
2024-03-09T11:45:20.336Z,16.95
2024-03-09T11:48:23.230Z,16.92
2024-03-09T11:51:25.576Z,16.93
2024-03-09T11:54:28.317Z,16.93
2024-03-09T11:57:30.808Z,16.92
2024-03-09T12:00:32.451Z,16.90
2024-03-09T12:03:34.814Z,16.89
2024-03-09T12:06:39.873Z,16.89
2024-03-09T12:09:45.901Z,16.89
2024-03-09T12:12:51.382Z,16.93
2024-03-09T12:15:54.169Z,17.00
2024-03-09T12:18:58.468Z,17.05
2024-03-09T12:22:00.473Z,17.09
2024-03-09T12:25:02.604Z,17.12
2024-03-09T12:28:06.754Z,17.16
2024-03-09T12:31:11.041Z,17.21
2024-03-09T12:34:13.133Z,17.26
2024-03-09T12:37:27.693Z,17.32
2024-03-09T12:40:30.497Z,17.34
2024-03-09T12:43:34.757Z,17.35
2024-03-09T12:46:37.632Z,17.38
2024-03-09T12:49:39.461Z,17.38
2024-03-09T12:52:41.190Z,17.42
2024-03-09T12:55:45.138Z,17.43
2024-03-09T12:58:49.048Z,17.45
2024-03-09T13:01:52.130Z,17.47
2024-03-09T13:04:54.458Z,17.49
2024-03-09T13:08:00.498Z,17.50
2024-03-09T13:11:02.350Z,17.50
2024-03-09T13:14:05.358Z,17.52
2024-03-09T13:17:07.701Z,17.55
2024-03-09T13:20:12.775Z,17.57
2024-03-09T13:23:14.785Z,17.60
2024-03-09T13:26:19.493Z,17.62
2024-03-09T13:29:29.727Z,17.63
2024-03-09T13:32:33.326Z,17.65
2024-03-09T13:35:35.037Z,17.67
2024-03-09T13:38:36.947Z,17.68
2024-03-09T13:41:42.146Z,17.69
2024-03-09T13:44:43.861Z,17.69
2024-03-09T13:47:45.553Z,17.69
2024-03-09T13:50:47.287Z,17.69
2024-03-09T13:53:50.159Z,17.70
2024-03-09T13:56:51.799Z,17.71
2024-03-09T13:59:53.461Z,17.73
2024-03-09T14:02:58.099Z,17.71
2024-03-09T14:06:03.590Z,17.75
2024-03-09T14:09:05.359Z,17.74
2024-03-09T14:12:10.073Z,17.74
2024-03-09T14:15:22.224Z,17.75
2024-03-09T14:18:26.260Z,17.77
2024-03-09T14:21:27.937Z,17.78
2024-03-09T14:24:29.549Z,17.79
2024-03-09T14:27:32.182Z,17.76
2024-03-09T14:30:35.537Z,17.76
2024-03-09T14:33:37.383Z,17.77
2024-03-09T14:36:39.522Z,17.80
2024-03-09T14:39:44.908Z,17.80
2024-03-09T14:42:49.997Z,17.84
2024-03-09T14:45:54.568Z,17.82
2024-03-09T14:48:56.187Z,17.83
2024-03-09T14:51:57.966Z,17.84
2024-03-09T14:55:00.174Z,17.84
2024-03-09T14:58:03.883Z,17.86
2024-03-09T15:01:05.985Z,17.88
2024-03-09T15:04:09.714Z,17.92
2024-03-09T15:07:12.056Z,17.96
2024-03-09T15:10:13.741Z,17.98
2024-03-09T15:13:17.234Z,18.04
2024-03-09T15:16:24.091Z,18.01
2024-03-09T15:19:25.924Z,17.97
2024-03-09T15:22:28.389Z,17.95
2024-03-09T15:25:31.622Z,17.94
2024-03-09T15:28:33.183Z,17.93
2024-03-09T15:31:34.758Z,17.92
2024-03-09T15:34:37.643Z,17.91
2024-03-09T15:37:39.344Z,17.93
2024-03-09T15:40:40.996Z,17.91
2024-03-09T15:43:43.530Z,17.89
2024-03-09T15:46:45.447Z,17.85
2024-03-09T15:49:47.081Z,17.81
2024-03-09T15:52:48.723Z,17.75
2024-03-09T15:55:51.033Z,17.69
2024-03-09T15:58:52.912Z,17.56
2024-03-09T16:01:58.295Z,17.44
2024-03-09T16:04:59.998Z,17.38
2024-03-09T16:08:01.747Z,17.41
2024-03-09T16:11:03.762Z,17.46
2024-03-09T16:14:12.775Z,17.50
2024-03-09T16:17:18.058Z,17.58
2024-03-09T16:20:29.500Z,17.66
2024-03-09T16:23:31.887Z,17.69
2024-03-09T16:26:34.549Z,17.74
2024-03-09T16:29:36.531Z,17.79
2024-03-09T16:32:38.176Z,17.83
2024-03-09T16:35:45.652Z,17.88
2024-03-09T16:38:47.504Z,17.90
2024-03-09T16:41:49.284Z,17.74
2024-03-09T16:44:50.874Z,17.41
2024-03-09T16:47:54.534Z,17.28
2024-03-09T16:50:56.725Z,17.10
2024-03-09T16:53:58.434Z,16.96
2024-03-09T16:57:01.275Z,16.87
2024-03-09T17:00:03.105Z,16.84
2024-03-09T17:03:11.892Z,16.86
2024-03-09T17:06:16.671Z,16.97
2024-03-09T17:09:21.298Z,17.08
2024-03-09T17:12:25.775Z,17.21
2024-03-09T17:15:28.266Z,17.32
2024-03-09T17:18:30.352Z,17.42
2024-03-09T17:21:35.368Z,17.51
2024-03-09T17:24:39.087Z,17.56
2024-03-09T17:27:41.840Z,17.64
2024-03-09T17:30:43.452Z,17.67
2024-03-09T17:33:45.131Z,17.72
2024-03-09T17:36:49.412Z,17.75
2024-03-09T17:39:51.198Z,17.79
2024-03-09T17:42:53.632Z,17.79
2024-03-09T17:45:55.218Z,17.84
2024-03-09T17:48:56.787Z,17.86
2024-03-09T17:51:59.498Z,17.87
2024-03-09T17:55:02.459Z,17.89
2024-03-09T17:58:09.866Z,17.88
2024-03-09T18:01:12.986Z,17.88
2024-03-09T18:04:15.082Z,17.86
2024-03-09T18:07:16.698Z,17.84
2024-03-09T18:10:18.708Z,17.84
2024-03-09T18:13:20.453Z,17.83
2024-03-09T18:16:22.091Z,17.81
2024-03-09T18:19:24.984Z,17.79
2024-03-09T18:22:26.565Z,17.80
2024-03-09T18:25:28.118Z,17.77
2024-03-09T18:28:29.698Z,17.73
2024-03-09T18:31:31.288Z,17.54
2024-03-09T18:34:33.189Z,17.30
2024-03-09T18:37:38.613Z,17.11
2024-03-09T18:40:42.126Z,17.00
2024-03-09T18:43:43.878Z,16.92
2024-03-09T18:46:47.666Z,16.87
2024-03-09T18:49:49.601Z,16.85
2024-03-09T18:52:54.050Z,16.80
2024-03-09T18:55:55.915Z,16.84
2024-03-09T18:58:58.570Z,16.94
2024-03-09T19:02:00.238Z,17.05
2024-03-09T19:05:02.154Z,17.15
2024-03-09T19:08:05.056Z,17.25
2024-03-09T19:11:07.720Z,17.34
2024-03-09T19:14:13.665Z,17.42
2024-03-09T19:17:15.320Z,17.48
2024-03-09T19:20:22.004Z,17.56
2024-03-09T19:23:24.247Z,17.59
2024-03-09T19:26:28.899Z,17.65
2024-03-09T19:29:30.620Z,17.67
2024-03-09T19:32:33.029Z,17.71
2024-03-09T19:35:37.306Z,17.74
2024-03-09T19:38:39.010Z,17.78
2024-03-09T19:41:41.320Z,17.83
2024-03-09T19:44:45.075Z,17.86
2024-03-09T19:47:48.408Z,17.90
2024-03-09T19:50:50.127Z,17.92
2024-03-09T19:53:51.848Z,17.93
2024-03-09T19:56:56.208Z,17.96
2024-03-09T19:59:58.426Z,18.01
2024-03-09T20:03:00.847Z,18.05
2024-03-09T20:06:03.759Z,18.08
2024-03-09T20:09:06.457Z,18.09
2024-03-09T20:12:10.784Z,18.12
2024-03-09T20:15:14.954Z,18.15
2024-03-09T20:18:16.678Z,18.16
2024-03-09T20:21:18.363Z,18.21
2024-03-09T20:24:19.980Z,18.23
2024-03-09T20:27:22.081Z,18.25
2024-03-09T20:30:23.832Z,18.27
2024-03-09T20:33:25.597Z,18.27
2024-03-09T20:36:27.211Z,18.28
2024-03-09T20:39:28.798Z,18.28
2024-03-09T20:42:30.525Z,18.29
2024-03-09T20:45:32.156Z,18.30
2024-03-09T20:48:33.987Z,18.33
2024-03-09T20:51:39.774Z,18.35
2024-03-09T20:54:41.382Z,18.37
2024-03-09T20:57:43.126Z,18.37
2024-03-09T21:00:47.015Z,18.38
2024-03-09T21:03:50.597Z,18.38
2024-03-09T21:06:52.429Z,18.38
2024-03-09T21:09:54.111Z,18.40
2024-03-09T21:13:00.028Z,18.41
2024-03-09T21:16:02.129Z,18.40
2024-03-09T21:19:03.913Z,18.38
2024-03-09T21:22:07.537Z,18.38
2024-03-09T21:25:11.818Z,18.39
2024-03-09T21:28:14.846Z,18.38
2024-03-09T21:31:16.546Z,18.38
2024-03-09T21:34:18.432Z,18.38
2024-03-09T21:37:22.069Z,18.38
2024-03-09T21:40:24.431Z,18.40
2024-03-09T21:43:26.146Z,18.40
2024-03-09T21:46:27.806Z,18.42
2024-03-09T21:49:29.630Z,18.40
2024-03-09T21:52:32.071Z,18.43
2024-03-09T21:55:35.304Z,18.43
2024-03-09T21:58:37.209Z,18.44
2024-03-09T22:01:38.966Z,18.43
2024-03-09T22:04:40.726Z,18.44
2024-03-09T22:07:42.603Z,18.43
2024-03-09T22:10:44.280Z,18.42
2024-03-09T22:13:50.256Z,18.41
2024-03-09T22:16:52.830Z,18.42
2024-03-09T22:19:54.493Z,18.39
2024-03-09T22:22:56.174Z,18.38
2024-03-09T22:25:58.026Z,18.38
2024-03-09T22:28:59.720Z,18.35
2024-03-09T22:32:01.656Z,18.29
2024-03-09T22:35:03.869Z,18.22
2024-03-09T22:38:05.558Z,18.17
2024-03-09T22:41:07.847Z,18.11
2024-03-09T22:44:09.679Z,18.07
2024-03-09T22:47:11.457Z,18.03
2024-03-09T22:50:15.210Z,18.00
2024-03-09T22:53:17.108Z,17.96
2024-03-09T22:56:18.837Z,17.93
2024-03-09T22:59:21.019Z,17.89
2024-03-09T23:02:23.893Z,17.85
2024-03-09T23:05:27.186Z,17.84
2024-03-09T23:08:29.520Z,17.79
2024-03-09T23:11:31.266Z,17.75
2024-03-09T23:14:32.915Z,17.74
2024-03-09T23:17:40.588Z,17.72
2024-03-09T23:20:42.210Z,17.69
2024-03-09T23:23:46.888Z,17.69
2024-03-09T23:26:49.871Z,17.67
2024-03-09T23:29:51.603Z,17.66
2024-03-09T23:32:55.378Z,17.64
2024-03-09T23:35:58.780Z,17.63
2024-03-09T23:39:00.431Z,17.62
2024-03-09T23:42:05.287Z,17.60
2024-03-09T23:45:11.471Z,17.59
2024-03-09T23:48:14.716Z,17.58
2024-03-09T23:51:16.412Z,17.57
2024-03-09T23:54:18.901Z,17.55
2024-03-09T23:57:20.670Z,17.53
